Time;durP1;ratioP1;P1;durP2;ratioP2;P2;SDS_P1;SDS_P2;PMS_P1;PMS_P2;Temp;Humidity;BMP_temperature;BMP_pressure;BME280_temperature;BME280_humidity;BME280_pressure;Samples;Min_cycle;Max_cycle;Signal;HPM_P1;HPM_P2
2023/12/04 00:00:25;;;;;;;;;44.00;32.00;;;;;-4.00;100.00;100409.34;6274235;20;2502864;-53
2023/12/04 00:02:54;;;;;;;;;42.00;28.00;;;;;-4.25;100.00;100402.97;6279728;20;2883590;-50
2023/12/04 00:05:23;;;;;;;;;48.00;37.00;;;;;-3.90;100.00;100415.53;6273956;20;2875280;-53
2023/12/04 00:07:53;;;;;;;;;57.67;45.00;;;;;-3.75;100.00;100403.44;6280848;20;2894286;-49
2023/12/04 00:10:22;;;;;;;;;48.50;36.50;;;;;-3.54;100.00;100412.34;6306783;20;2874264;-52
2023/12/04 00:12:52;;;;;;;;;36.50;30.50;;;;;-3.57;100.00;100405.31;6278217;20;2858639;-51
2023/12/04 00:15:23;;;;;;;;;40.00;31.00;;;;;-3.70;100.00;100394.72;6277555;20;2808660;-51
2023/12/04 00:17:52;;;;;;;;;42.00;42.00;;;;;-3.56;100.00;100395.69;6279357;20;3601292;-51
2023/12/04 00:20:22;;;;;;;;;57.67;39.67;;;;;-3.72;100.00;100391.22;6277026;20;2893079;-53
2023/12/04 00:22:51;;;;;;;;;47.50;39.50;;;;;-3.80;100.00;100394.63;6311852;20;2866126;-54
2023/12/04 00:25:21;;;;;;;;;49.67;38.67;;;;;-3.70;100.00;100392.09;6277768;20;2887865;-52
2023/12/04 00:27:50;;;;;;;;;44.00;37.50;;;;;-3.66;100.00;100393.88;6307179;20;2867149;-54
2023/12/04 00:30:19;;;;;;;;;64.00;48.00;;;;;-3.63;100.00;100393.91;6275455;20;2868075;-53
2023/12/04 00:32:49;;;;;;;;;65.33;50.33;;;;;-3.69;100.00;100391.22;6279001;20;2860727;-48
2023/12/04 00:35:19;;;;;;;;;52.00;42.67;;;;;-3.60;100.00;100389.56;6310335;20;3627442;-48
2023/12/04 00:37:47;;;;;;;;;36.50;30.00;;;;;-3.56;100.00;100393.06;6308194;20;2868032;-43
2023/12/04 00:40:17;;;;;;;;;46.00;31.67;;;;;-3.55;100.00;100389.59;6276850;20;2894143;-43
2023/12/04 00:42:47;;;;;;;;;62.00;45.00;;;;;-3.69;100.00;100392.09;6311714;20;3659695;-44
2023/12/04 00:45:16;;;;;;;;;68.50;50.00;;;;;-3.83;100.00;100386.75;6308104;20;2878419;-45
2023/12/04 00:47:45;;;;;;;;;53.50;45.00;;;;;-3.70;100.00;100386.84;6280303;20;2864906;-44
2023/12/04 00:50:15;;;;;;;;;62.33;45.67;;;;;-3.72;100.00;100386.84;6275833;20;3645048;-48
2023/12/04 00:52:44;;;;;;;;;46.50;39.50;;;;;-3.68;100.00;100387.75;6311848;20;2857609;-46
2023/12/04 00:55:12;;;;;;;;;39.00;33.00;;;;;-3.75;100.00;100392.94;6275728;20;2502370;-47
2023/12/04 00:57:41;;;;;;;;;44.50;35.00;;;;;-3.52;100.00;100394.88;6280204;20;2862792;-46
2023/12/04 01:00:11;;;;;;;;;37.00;30.50;;;;;-3.93;100.00;100398.03;6277643;20;2871264;-47
2023/12/04 01:02:40;;;;;;;;;42.50;35.00;;;;;-3.86;100.00;100397.22;6271257;20;2502337;-46
2023/12/04 01:05:08;;;;;;;;;38.00;33.50;;;;;-3.90;100.00;100395.44;6276493;20;2502577;-49
2023/12/04 01:07:37;;;;;;;;;34.00;29.00;;;;;-4.17;100.00;100396.06;6277057;20;2865068;-47
2023/12/04 01:10:07;;;;;;;;;45.50;35.00;;;;;-4.05;100.00;100395.31;6274472;20;2876732;-46
2023/12/04 01:12:36;;;;;;;;;34.00;30.00;;;;;-4.21;100.00;100395.19;6275892;20;2858640;-46
2023/12/04 01:15:05;;;;;;;;;33.50;25.00;;;;;-4.18;100.00;100399.56;6272908;20;2502430;-45
2023/12/04 01:17:34;;;;;;;;;44.00;34.50;;;;;-3.82;100.00;100393.78;6278454;20;2870060;-49
2023/12/04 01:20:02;;;;;;;;;26.00;26.00;;;;;-3.83;100.00;100402.50;6274285;20;2838817;-47
2023/12/04 01:22:31;;;;;;;;;40.67;34.00;;;;;-4.12;100.00;100402.25;6273373;20;2875297;-47
2023/12/04 01:24:59;;;;;;;;;35.00;29.00;;;;;-4.07;100.00;100402.28;6305178;20;2860075;-49
2023/12/04 01:27:27;;;;;;;;;41.00;30.50;;;;;-3.95;100.00;100407.63;6279303;20;2502407;-47
2023/12/04 01:29:56;;;;;;;;;41.33;27.33;;;;;-3.95;100.00;100407.63;6282355;20;3612841;-47
2023/12/04 01:32:25;;;;;;;;;39.33;29.00;;;;;-4.07;100.00;100402.28;6284220;20;3614858;-46
2023/12/04 01:34:55;;;;;;;;;31.00;25.67;;;;;-4.50;100.00;100402.75;6280439;20;3587742;-45
2023/12/04 01:37:24;;;;;;;;;40.33;31.00;;;;;-4.41;100.00;100402.81;6278299;20;3609648;-45
2023/12/04 01:39:52;;;;;;;;;43.67;32.33;;;;;-4.18;100.00;100399.56;6280850;20;2887809;-48
2023/12/04 01:42:21;;;;;;;;;42.50;34.00;;;;;-4.43;100.00;100403.66;6312465;20;2876352;-47
2023/12/04 01:44:50;;;;;;;;;36.50;31.00;;;;;-4.63;100.00;100396.47;6279273;20;2502439;-46
2023/12/04 01:47:20;;;;;;;;;57.50;43.00;;;;;-4.60;100.00;100395.63;6281138;20;3631627;-50
2023/12/04 01:49:50;;;;;;;;;59.33;45.67;;;;;-4.21;100.00;100395.19;6310619;20;2880520;-44
2023/12/04 01:52:19;;;;;;;;;49.67;36.00;;;;;-4.05;100.00;100396.19;6313801;20;3632953;-40
2023/12/04 01:54:47;;;;;;;;;20.67;18.67;;;;;-4.11;100.00;100385.63;6280012;20;3548214;-42
2023/12/04 01:57:16;;;;;;;;;30.67;30.33;;;;;-4.20;100.00;100396.91;6312264;20;3594025;-43
2023/12/04 01:59:46;;;;;;;;;40.50;30.00;;;;;-4.10;100.00;100392.66;6276574;20;2877368;-44
2023/12/04 02:02:15;;;;;;;;;57.33;45.00;;;;;-4.26;100.00;100396.88;6277444;20;2889948;-44
2023/12/04 02:04:45;;;;;;;;;75.00;53.33;;;;;-4.45;100.00;100400.16;6311366;20;2895229;-45
2023/12/04 02:07:13;;;;;;;;;42.00;33.00;;;;;-4.55;100.00;100408.78;6307090;20;2502370;-46
2023/12/04 02:09:43;;;;;;;;;24.00;24.00;;;;;-4.11;100.00;100416.22;6278934;20;3576292;-43
2023/12/04 02:12:11;;;;;;;;;32.00;24.00;;;;;-4.13;100.00;100417.94;6312985;20;2848208;-47
2023/12/04 02:14:40;;;;;;;;;30.33;25.33;;;;;-4.01;100.00;100423.31;6280745;20;3598179;-50
2023/12/04 02:17:11;;;;;;;;;45.50;33.00;;;;;-3.79;100.00;100427.00;6280133;20;2885823;-52
2023/12/04 02:19:40;;;;;;;;;52.00;38.00;;;;;-3.79;100.00;100425.28;6279028;20;2877352;-52
2023/12/04 02:22:10;;;;;;;;;54.25;39.75;;;;;-4.01;100.00;100425.94;6278883;20;3623218;-48
2023/12/04 02:24:38;;;;;;;;;36.50;32.00;;;;;-4.05;100.00;100432.03;6308304;20;2502399;-48
2023/12/04 02:27:25;;;;;;;;;46.33;29.33;;;;;-4.03;100.00;100427.66;6275407;20;2880486;-51
2023/12/04 02:30:02;;;;;;;;;39.50;24.50;;;;;-3.90;100.00;100421.66;6304967;20;2502340;-52
2023/12/04 02:32:35;;;;;;;;;38.00;27.50;;;;;-3.90;100.00;100429.53;6277441;20;2864856;-49
2023/12/04 02:35:06;;;;;;;;;30.00;22.00;;;;;-3.87;100.00;100423.44;6279031;20;3592855;-51
2023/12/04 02:37:36;;;;;;;;;49.75;35.75;;;;;-3.97;100.00;100423.38;6279054;20;3634608;-52
2023/12/04 02:40:07;;;;;;;;;34.67;24.33;;;;;-3.74;100.00;100433.16;6310398;20;3588942;-51
2023/12/04 02:42:35;;;;;;;;;32.00;25.50;;;;;-3.84;100.00;100432.22;6277850;20;2503156;-52
2023/12/04 02:45:05;;;;;;;;;30.00;28.67;;;;;-3.86;100.00;100448.81;6283089;20;3583591;-52
2023/12/04 02:47:33;;;;;;;;;28.67;18.00;;;;;-3.80;100.00;100436.63;6312210;20;2848315;-52
2023/12/04 02:50:03;;;;;;;;;33.00;25.00;;;;;-4.24;100.00;100442.34;6308511;20;3578367;-53
2023/12/04 02:52:31;;;;;;;;;33.50;26.50;;;;;-3.92;100.00;100433.91;6305226;20;2502400;-52
2023/12/04 02:55:00;;;;;;;;;36.67;29.00;;;;;-4.00;100.00;100431.22;6277667;20;3615994;-54
2023/12/04 02:57:29;;;;;;;;;38.50;32.00;;;;;-4.35;100.00;100438.69;6278570;20;2869021;-46
2023/12/04 02:59:58;;;;;;;;;38.50;29.00;;;;;-4.00;100.00;100430.34;6275271;20;2871239;-47
2023/12/04 03:02:27;;;;;;;;;33.50;28.00;;;;;-4.29;100.00;100425.69;6278463;20;2856529;-47
2023/12/04 03:04:55;;;;;;;;;38.00;34.00;;;;;-3.98;100.00;100428.59;6279253;20;2502366;-46
2023/12/04 03:07:26;;;;;;;;;45.67;27.00;;;;;-4.26;100.00;100425.72;6282723;20;3609643;-47
2023/12/04 03:09:55;;;;;;;;;46.33;31.00;;;;;-4.15;100.00;100430.19;6278572;20;3630484;-47
2023/12/04 03:12:23;;;;;;;;;39.50;33.50;;;;;-4.17;100.00;100438.03;6274577;20;2502350;-46
2023/12/04 03:14:51;;;;;;;;;33.50;27.50;;;;;-4.16;100.00;100431.03;6279273;20;2847212;-46
2023/12/04 03:17:20;;;;;;;;;38.33;30.00;;;;;-4.49;100.00;100424.56;6278074;20;3596160;-47
2023/12/04 03:19:50;;;;;;;;;36.67;28.67;;;;;-4.05;100.00;100427.66;6280161;20;3589903;-45
2023/12/04 03:22:19;;;;;;;;;50.00;32.33;;;;;-4.23;100.00;100436.22;6277562;20;2890007;-48
2023/12/04 03:24:47;;;;;;;;;45.00;35.00;;;;;-4.14;100.00;100426.69;6306959;20;2498218;-47
2023/12/04 03:27:15;;;;;;;;;40.00;32.00;;;;;-4.34;100.00;100432.63;6276569;20;2498193;-47
2023/12/04 03:29:43;;;;;;;;;32.00;24.50;;;;;-4.35;100.00;100438.69;6278002;20;2859738;-46
2023/12/04 03:32:12;;;;;;;;;31.00;23.33;;;;;-4.28;100.00;100437.91;6279267;20;3586943;-45
2023/12/04 03:34:41;;;;;;;;;43.67;30.00;;;;;-4.12;100.00;100435.44;6277892;20;2875403;-44
2023/12/04 03:37:10;;;;;;;;;44.67;33.00;;;;;-4.24;100.00;100437.09;6308293;20;3606546;-43
2023/12/04 03:39:38;;;;;;;;;38.00;28.00;;;;;-4.23;100.00;100445.84;6279052;20;2841252;-46
2023/12/04 03:42:07;;;;;;;;;35.67;25.67;;;;;-4.46;100.00;100435.09;6280363;20;3594002;-47
2023/12/04 03:44:36;;;;;;;;;37.33;33.00;;;;;-4.52;100.00;100441.16;6281188;20;3612755;-46
2023/12/04 03:47:04;;;;;;;;;32.00;20.00;;;;;-4.36;100.00;100441.31;6278324;20;2502480;-44
2023/12/04 03:49:33;;;;;;;;;37.33;23.00;;;;;-4.37;100.00;100445.69;6277078;20;3611849;-44
2023/12/04 03:52:03;;;;;;;;;31.00;25.00;;;;;-4.33;100.00;100447.47;6274330;20;3574337;-45
2023/12/04 03:54:30;;;;;;;;;37.00;28.00;;;;;-4.42;100.00;100444.75;6277307;20;2872190;-45
2023/12/04 03:56:59;;;;;;;;;37.67;27.33;;;;;-4.36;100.00;100447.44;6279474;20;3603449;-44
2023/12/04 03:59:30;;;;;;;;;37.17;29.00;;;;;-4.38;100.00;100443.91;6301911;20;3602420;-46
2023/12/04 04:02:00;;;;;;;;;54.00;46.00;;;;;-4.11;100.00;100447.69;6278643;20;3600676;-44
2023/12/04 04:04:28;;;;;;;;;61.50;49.50;;;;;-4.17;100.00;100452.88;6277994;20;2876416;-44
2023/12/04 04:06:56;;;;;;;;;61.50;46.00;;;;;-4.36;100.00;100457.91;6274892;20;2499245;-44
2023/12/04 04:09:25;;;;;;;;;56.67;46.67;;;;;-4.39;100.00;100462.25;6278602;20;2877457;-45
2023/12/04 04:11:53;;;;;;;;;55.00;45.00;;;;;-4.31;100.00;100461.47;6306795;20;2500290;-44
2023/12/04 04:14:21;;;;;;;;;55.50;45.00;;;;;-4.27;100.00;100463.25;6277018;20;2868055;-45
2023/12/04 04:16:50;;;;;;;;;56.67;45.33;;;;;-4.18;100.00;100472.09;6279280;20;2872243;-44
2023/12/04 04:19:19;;;;;;;;;53.67;45.00;;;;;-4.04;100.00;100474.00;6308550;20;3586964;-45
2023/12/04 04:21:47;;;;;;;;;54.00;44.00;;;;;-4.08;100.00;100463.44;6280582;20;2858657;-44
2023/12/04 04:24:15;;;;;;;;;55.50;43.00;;;;;-4.20;100.00;100474.69;6274347;20;2496101;-43
2023/12/04 04:26:43;;;;;;;;;56.00;45.50;;;;;-4.15;100.00;100472.13;6279264;20;2864865;-43
2023/12/04 04:29:13;;;;;;;;;60.00;44.75;;;;;-4.33;100.00;100457.94;6279036;20;3633639;-46
2023/12/04 04:31:41;;;;;;;;;62.00;49.50;;;;;-4.17;100.00;100455.50;6302450;20;2497203;-45
2023/12/04 04:34:09;;;;;;;;;63.00;46.00;;;;;-4.29;100.00;100456.22;6274382;20;2503416;-44
2023/12/04 04:36:37;;;;;;;;;63.50;49.50;;;;;-4.17;100.00;100459.00;6275598;20;2499240;-44
2023/12/04 04:39:07;;;;;;;;;81.67;65.33;;;;;-4.47;100.00;100454.31;6279217;20;3663895;-44
2023/12/04 04:41:36;;;;;;;;;53.00;39.00;;;;;-4.51;100.00;100448.13;6310017;20;2875328;-48
2023/12/04 04:44:06;;;;;;;;;55.33;39.33;;;;;-4.44;100.00;100452.59;6278028;20;2886873;-50
2023/12/04 04:46:34;;;;;;;;;47.00;38.50;;;;;-4.38;100.00;100459.63;6304859;20;2504435;-53
2023/12/04 04:49:06;;;;;;;;;37.00;27.67;;;;;-4.37;100.00;100456.19;6279088;20;3595177;-51
2023/12/04 04:51:35;;;;;;;;;69.33;48.00;;;;;-4.37;100.00;100450.94;6275382;20;2883605;-51
2023/12/04 04:54:05;;;;;;;;;61.00;47.00;;;;;-4.51;100.00;100456.00;6310908;20;3645107;-47
2023/12/04 04:56:34;;;;;;;;;60.00;48.00;;;;;-4.37;100.00;100461.41;6310784;20;2871193;-51
2023/12/04 04:59:04;;;;;;;;;49.00;36.00;;;;;-4.57;100.00;100455.94;6276661;20;2889883;-53
2023/12/04 05:01:32;;;;;;;;;50.00;37.00;;;;;-4.17;100.00;100453.75;6301677;20;2502857;-49
2023/12/04 05:04:04;;;;;;;;;54.71;43.00;;;;;-4.33;100.00;100452.72;6300197;20;2882658;-52
2023/12/04 05:06:32;;;;;;;;;69.50;54.00;;;;;-4.33;100.00;100442.22;6306137;20;2497167;-49
2023/12/04 05:09:00;;;;;;;;;71.00;54.00;;;;;-4.16;100.00;100449.38;6276380;20;2500428;-50
2023/12/04 05:11:29;;;;;;;;;68.60;54.60;;;;;-4.24;100.00;100449.28;6275284;20;3617964;-53
2023/12/04 05:13:58;;;;;;;;;66.60;54.20;;;;;-4.35;100.00;100448.31;6277931;20;3623180;-52
2023/12/04 05:16:26;;;;;;;;;36.50;30.00;;;;;-4.31;100.00;100448.38;6272082;20;2502351;-52
2023/12/04 05:18:55;;;;;;;;;63.67;49.00;;;;;-4.22;100.00;100445.81;6274270;20;2895054;-53
2023/12/04 05:21:23;;;;;;;;;58.50;47.00;;;;;-4.23;100.00;100457.19;6308366;20;2868066;-42
2023/12/04 05:23:51;;;;;;;;;67.50;53.50;;;;;-4.74;100.00;100460.97;6270212;20;2499378;-43
2023/12/04 05:26:20;;;;;;;;;61.67;45.33;;;;;-4.31;100.00;100476.34;6278105;20;2887765;-42
2023/12/04 05:28:49;;;;;;;;;58.00;47.00;;;;;-4.49;100.00;100467.38;6305030;20;2881747;-42
2023/12/04 05:31:18;;;;;;;;;49.00;30.75;;;;;-4.31;100.00;100466.72;6306466;20;3629423;-42
2023/12/04 05:33:46;;;;;;;;;60.50;48.50;;;;;-4.22;100.00;100461.56;6306921;20;2871138;-42
2023/12/04 05:36:15;;;;;;;;;57.00;45.00;;;;;-4.25;100.00;100464.16;6277284;20;2864849;-51
2023/12/04 05:38:44;;;;;;;;;38.33;24.67;;;;;-4.35;100.00;100467.53;6277508;20;3608687;-51
2023/12/04 05:41:12;;;;;;;;;34.00;27.50;;;;;-4.08;100.00;100466.06;6277094;20;2853458;-49
2023/12/04 05:43:40;;;;;;;;;36.50;27.00;;;;;-4.21;100.00;100467.72;6274888;20;2502455;-49
2023/12/04 05:46:09;;;;;;;;;36.67;26.33;;;;;-4.12;100.00;100472.16;6277676;20;3597173;-55
2023/12/04 05:48:38;;;;;;;;;25.67;23.67;;;;;-4.13;100.00;100465.13;6272570;20;3573175;-49
2023/12/04 05:51:07;;;;;;;;;41.00;25.00;;;;;-4.22;100.00;100464.19;6305671;20;3604418;-45
2023/12/04 05:53:36;;;;;;;;;27.33;25.00;;;;;-3.98;100.00;100458.34;6273799;20;3598316;-42
2023/12/04 05:56:08;;;;;;;;;47.33;31.67;;;;;-4.17;100.00;100468.59;6273732;20;2895109;-43
2023/12/04 05:58:36;;;;;;;;;64.00;51.00;;;;;-4.30;100.00;100468.47;6305700;20;2879598;-42
2023/12/04 06:01:06;;;;;;;;;59.00;51.50;;;;;-4.24;100.00;100471.19;6270892;20;2499188;-43
2023/12/04 06:03:35;;;;;;;;;63.33;35.33;;;;;-4.31;100.00;100479.81;6280081;20;2890973;-42
2023/12/04 06:06:06;;;;;;;;;58.33;39.67;;;;;-4.11;100.00;100472.16;6309083;20;2896237;-43
2023/12/04 06:08:35;;;;;;;;;41.00;32.00;;;;;-4.46;100.00;100471.78;6309655;20;2877479;-44
2023/12/04 06:11:03;;;;;;;;;36.00;25.00;;;;;-4.24;100.00;100471.19;6276819;20;2862821;-42
2023/12/04 06:13:32;;;;;;;;;35.00;26.00;;;;;-4.38;100.00;100467.50;6280898;20;2846188;-43
2023/12/04 06:15:59;;;;;;;;;40.00;39.00;;;;;-4.15;100.00;100472.13;6276419;20;2502461;-46
2023/12/04 06:18:28;;;;;;;;;51.50;45.50;;;;;-4.36;100.00;100476.28;6311622;20;2854464;-50
2023/12/04 06:20:57;;;;;;;;;62.00;49.00;;;;;-4.24;100.00;100470.28;6281836;20;2869065;-50
2023/12/04 06:23:26;;;;;;;;;69.50;51.00;;;;;-4.32;100.00;100475.41;6280457;20;2500375;-51
2023/12/04 06:25:55;;;;;;;;;69.67;50.33;;;;;-4.26;100.00;100465.03;6280283;20;2879689;-52
2023/12/04 06:28:24;;;;;;;;;59.00;48.50;;;;;-4.31;100.00;100471.09;6309648;20;2854499;-48
2023/12/04 06:30:53;;;;;;;;;70.00;52.00;;;;;-4.30;100.00;100481.56;6281274;20;2882633;-48
2023/12/04 06:33:23;;;;;;;;;57.50;48.00;;;;;-4.34;100.00;100484.16;6283252;20;2873321;-54
2023/12/04 06:35:52;;;;;;;;;55.50;43.00;;;;;-4.50;100.00;100486.59;6279636;20;2499323;-55
2023/12/04 06:38:25;;;;;;;;;43.50;35.00;;;;;-5.05;100.00;100491.09;6276873;20;2502460;-55
2023/12/04 06:40:54;;;;;;;;;58.50;40.00;;;;;-4.58;100.00;100492.56;6280850;20;2889931;-52
2023/12/04 06:43:23;;;;;;;;;71.00;48.50;;;;;-4.51;100.00;100487.44;6277493;20;2501390;-49
2023/12/04 06:45:56;;;;;;;;;82.00;61.00;;;;;-4.20;100.00;100486.06;6282078;20;2898448;-48
2023/12/04 06:48:27;;;;;;;;;86.00;59.00;;;;;-3.05;100.00;100488.84;6315084;20;3665874;-52
2023/12/04 06:50:57;;;;;;;;;116.00;78.50;;;;;-3.73;100.00;100487.41;6312580;20;3582578;-51
2023/12/04 06:53:27;;;;;;;;;99.67;69.33;;;;;-3.97;100.00;100498.56;6313629;20;3668040;-45
2023/12/04 06:55:57;;;;;;;;;91.33;66.00;;;;;-4.25;100.00;100506.09;6312153;20;3656492;-46
2023/12/04 06:58:27;;;;;;;;;114.33;84.33;;;;;-4.02;100.00;100501.13;6313743;20;3705588;-51
2023/12/04 07:00:57;;;;;;;;;93.00;68.33;;;;;-4.03;100.00;100501.09;6279963;20;3683574;-53
2023/12/04 07:03:27;;;;;;;;;97.67;70.00;;;;;-3.96;100.00;100505.53;6312675;20;3680865;-52
2023/12/04 07:05:57;;;;;;;;;83.00;59.83;;;;;-3.69;100.00;100504.94;6277603;20;3656670;-49
2023/12/04 07:08:26;;;;;;;;;75.50;55.00;;;;;-3.88;100.00;100514.38;6306070;20;2876327;-53
2023/12/04 07:10:56;;;;;;;;;78.00;51.67;;;;;-3.72;100.00;100514.53;6274840;20;2893990;-52
2023/12/04 07:13:26;;;;;;;;;81.00;60.33;;;;;-3.54;100.00;100507.69;6310442;20;2892059;-51
2023/12/04 07:15:55;;;;;;;;;79.67;61.00;;;;;-3.53;100.00;100505.94;6306924;20;2890870;-50
2023/12/04 07:18:26;;;;;;;;;89.00;63.67;;;;;-3.21;100.00;100510.56;6312945;20;3664836;-51
2023/12/04 07:20:55;;;;;;;;;75.50;58.00;;;;;-3.08;99.88;100517.72;6312835;20;2872142;-54
2023/12/04 07:23:25;;;;;;;;;87.33;65.33;;;;;-3.42;100.00;100517.44;6280584;20;2885760;-54
2023/12/04 07:25:55;;;;;;;;;74.00;54.00;;;;;-2.87;99.31;100515.22;6313792;20;2874274;-50
2023/12/04 07:28:25;;;;;;;;;81.00;57.00;;;;;-2.89;99.44;100522.22;6277707;20;3646107;-51
2023/12/04 07:30:56;;;;;;;;;69.67;50.67;;;;;-2.58;99.35;100522.41;6310595;20;2873244;-52
2023/12/04 07:33:25;;;;;;;;;46.00;40.00;;;;;-2.91;100.00;100523.94;6312747;20;2863845;-52
2023/12/04 07:35:54;;;;;;;;;42.50;34.00;;;;;-2.74;99.97;100531.94;6280408;20;2500373;-54
2023/12/04 07:38:23;;;;;;;;;52.67;41.67;;;;;-2.41;99.41;100532.97;6278769;20;2884685;-50
2023/12/04 07:40:57;;;;;;;;;106.67;73.67;;;;;-2.59;98.47;100525.88;6313062;20;3668049;-48
2023/12/04 07:43:27;;;;;;;;;92.00;65.33;;;;;-2.32;98.37;100529.50;6315224;20;3657547;-49
2023/12/04 07:45:57;;;;;;;;;63.00;48.00;;;;;-2.40;97.88;100518.09;6315600;20;3647123;-50
2023/12/04 07:48:29;;;;;;;;;68.67;44.33;;;;;-2.09;97.45;100527.84;6315052;20;3662776;-50
2023/12/04 07:50:59;;;;;;;;;85.67;63.33;;;;;-1.88;96.52;100527.03;6310986;20;3649226;-48
2023/12/04 07:53:29;;;;;;;;;82.67;58.67;;;;;-2.11;96.67;100537.47;6314323;20;3650227;-48
2023/12/04 07:56:01;;;;;;;;;70.00;57.00;;;;;-1.66;95.62;100538.50;6313275;20;2860824;-47
2023/12/04 07:58:31;;;;;;;;;78.00;57.00;;;;;-2.28;96.83;100537.44;6279084;20;2500316;-47
2023/12/04 08:01:00;;;;;;;;;80.00;57.50;;;;;-1.96;96.68;100543.69;6276095;20;2493094;-49
2023/12/04 08:03:29;;;;;;;;;78.00;59.00;;;;;-1.57;95.47;100543.78;6283199;20;2872159;-46
2023/12/04 08:05:58;;;;;;;;;73.00;52.00;;;;;-1.72;96.32;100538.47;6281919;20;2870185;-47
2023/12/04 08:08:27;;;;;;;;;80.00;59.50;;;;;-1.52;94.69;100540.28;6281195;20;2867990;-49
2023/12/04 08:10:57;;;;;;;;;86.67;65.33;;;;;-1.89;96.56;100538.44;6278513;20;2898286;-52
2023/12/04 08:13:25;;;;;;;;;68.00;51.50;;;;;-1.19;94.73;100536.78;6310349;20;2492091;-49
2023/12/04 08:15:54;;;;;;;;;57.00;47.50;;;;;-0.85;93.16;100537.63;6279789;20;2871175;-47
2023/12/04 08:18:24;;;;;;;;;103.67;78.33;;;;;-0.75;92.05;100544.63;6282051;20;3681558;-50
2023/12/04 08:20:54;;;;;;;;;80.67;56.33;;;;;-0.41;91.35;100536.66;6276353;20;2889894;-46
2023/12/04 08:23:24;;;;;;;;;63.00;48.33;;;;;-1.01;92.55;100530.63;6309413;20;2881603;-48
2023/12/04 08:25:54;;;;;;;;;65.33;47.33;;;;;-0.80;94.16;100538.50;6313491;20;2876545;-45
2023/12/04 08:28:22;;;;;;;;;58.00;48.50;;;;;-0.48;91.18;100540.19;6307772;20;2508670;-45
2023/12/04 08:30:52;;;;;;;;;59.33;41.00;;;;;-0.57;89.32;100545.50;6279619;20;3634659;-47
2023/12/04 08:33:21;;;;;;;;;48.00;41.50;;;;;-0.69;90.62;100541.97;6313669;20;2869054;-47
2023/12/04 08:35:51;;;;;;;;;53.67;45.33;;;;;-0.95;92.07;100547.31;6280392;20;2867144;-49
2023/12/04 08:38:21;;;;;;;;;61.67;45.33;;;;;-0.32;92.12;100539.25;6312410;20;2857599;-46
2023/12/04 08:40:50;;;;;;;;;55.00;45.00;;;;;-0.27;90.52;100545.38;6308477;20;2864821;-46
2023/12/04 08:43:20;;;;;;;;;50.67;42.00;;;;;-0.63;92.68;100542.84;6273550;20;2875516;-47
2023/12/04 08:45:50;;;;;;;;;94.67;66.33;;;;;-0.26;91.52;100541.00;6308856;20;3654538;-51
2023/12/04 08:48:19;;;;;;;;;83.33;61.67;;;;;-0.22;89.26;100548.00;6307530;20;3644011;-46
2023/12/04 08:50:49;;;;;;;;;68.50;54.50;;;;;-0.30;88.92;100542.75;6303587;20;2867981;-45
2023/12/04 08:53:17;;;;;;;;;52.00;42.00;;;;;0.17;88.28;100549.59;6272277;20;2492988;-47
2023/12/04 08:55:45;;;;;;;;;37.00;37.00;;;;;0.46;86.38;100542.41;6271177;20;2508602;-47
2023/12/04 08:58:14;;;;;;;;;42.00;35.00;;;;;0.11;87.56;100541.72;6280004;20;2860807;-44
2023/12/04 09:00:43;;;;;;;;;42.00;35.00;;;;;0.83;84.88;100545.66;6274644;20;2715952;-47
2023/12/04 09:03:13;;;;;;;;;54.67;34.67;;;;;0.78;83.24;100545.66;6311304;20;2877438;-50
2023/12/04 09:05:55;;;;;;;;;29.00;22.00;;;;;0.73;81.81;100549.25;6310787;20;2841987;-46
2023/12/04 09:08:26;;;;;;;;;32.50;30.00;;;;;0.94;80.82;100545.56;6278080;20;2500334;-48
2023/12/04 09:11:07;;;;;;;;;23.67;19.67;;;;;0.64;82.79;100537.84;6278310;20;3557823;-46
2023/12/04 09:13:38;;;;;;;;;17.00;17.00;;;;;0.33;82.13;100541.59;6307030;20;2825277;-47
2023/12/04 09:16:08;;;;;;;;;19.67;18.00;;;;;0.53;81.13;100537.06;6275639;20;3566947;-49
2023/12/04 09:18:36;;;;;;;;;33.00;25.50;;;;;0.72;80.88;100539.56;6310567;20;2836748;-51
2023/12/04 09:21:05;;;;;;;;;30.33;24.00;;;;;0.71;82.02;100537.81;6278307;20;3563922;-48
2023/12/04 09:23:35;;;;;;;;;23.00;15.50;;;;;0.47;80.22;100539.72;6278726;20;2819057;-44
2023/12/04 09:26:04;;;;;;;;;39.00;32.50;;;;;1.16;78.51;100539.19;6278545;20;2851365;-45
2023/12/04 09:28:32;;;;;;;;;36.00;28.00;;;;;0.93;78.88;100538.53;6276336;20;2500324;-46
2023/12/04 09:31:01;;;;;;;;;48.50;42.00;;;;;1.38;76.25;100531.91;6276354;20;2853491;-48
2023/12/04 09:33:30;;;;;;;;;30.67;25.00;;;;;0.78;76.49;100537.75;6278710;20;3586797;-47
2023/12/04 09:35:59;;;;;;;;;22.67;21.67;;;;;0.40;79.21;100535.41;6280329;20;3563878;-45
2023/12/04 09:38:29;;;;;;;;;43.00;34.67;;;;;0.43;78.46;100532.72;6307886;20;2865912;-47
2023/12/04 09:41:03;;;;;;;;;48.67;36.00;;;;;0.77;78.80;100540.41;6310939;20;2875322;-41
2023/12/04 09:43:33;;;;;;;;;48.00;42.33;;;;;1.02;77.34;100523.44;6307970;20;2867035;-42
2023/12/04 09:46:01;;;;;;;;;28.50;19.50;;;;;0.88;77.14;100525.34;6308599;20;2837812;-44
2023/12/04 09:48:32;;;;;;;;;43.00;33.50;;;;;0.72;78.11;100529.00;6277862;20;2500373;-50
2023/12/04 09:51:02;;;;;;;;;42.50;33.50;;;;;0.73;78.55;100522.81;6277811;20;2500383;-45
2023/12/04 09:53:34;;;;;;;;;37.50;33.00;;;;;1.21;77.23;100517.97;6283244;20;2870113;-46
2023/12/04 09:56:05;;;;;;;;;44.33;34.00;;;;;1.26;77.05;100514.41;6280881;20;2879686;-47
2023/12/04 09:58:35;;;;;;;;;38.00;34.00;;;;;1.15;75.55;100504.81;6312334;20;2854589;-45
2023/12/04 10:01:04;;;;;;;;;42.00;36.50;;;;;1.36;76.17;100501.94;6282175;20;2857606;-45
2023/12/04 10:03:35;;;;;;;;;33.00;28.50;;;;;1.26;75.67;100510.88;6281359;20;2850314;-44
2023/12/04 10:06:07;;;;;;;;;41.50;32.50;;;;;1.04;76.80;100495.22;6281383;20;2869036;-45
2023/12/04 10:08:37;;;;;;;;;50.67;39.67;;;;;1.44;76.20;100493.94;6282231;20;2890264;-46
2023/12/04 10:11:06;;;;;;;;;39.00;32.50;;;;;1.29;75.54;100489.66;6312724;20;2855533;-44
2023/12/04 10:13:34;;;;;;;;;37.00;30.00;;;;;1.70;73.96;100485.69;6281427;20;2500292;-46
2023/12/04 10:16:38;;;;;;;;;38.00;34.00;;;;;1.11;74.49;100485.47;6281626;20;2859679;-47
2023/12/04 10:19:31;;;;;;;;;35.00;27.50;;;;;0.99;75.88;100478.53;6280958;20;2500282;-44
2023/12/04 10:22:00;;;;;;;;;39.00;33.00;;;;;1.78;75.37;100478.50;6278557;20;2855577;-45
2023/12/04 10:24:35;;;;;;;;;33.50;30.00;;;;;1.60;73.54;100478.75;6283233;20;2848169;-46
2023/12/04 10:27:12;;;;;;;;;44.00;35.50;;;;;1.53;72.36;100473.53;6279913;20;2865945;-45
2023/12/04 10:29:46;;;;;;;;;39.50;32.00;;;;;1.59;73.26;100466.41;6278415;20;2500272;-49
2023/12/04 10:32:22;;;;;;;;;31.00;28.00;;;;;1.59;73.00;100466.41;6278257;20;2500417;-49
2023/12/04 10:34:51;;;;;;;;;37.50;29.00;;;;;1.89;74.97;100468.66;6278811;20;2857666;-42
2023/12/04 10:37:22;;;;;;;;;43.00;34.67;;;;;1.33;76.63;100454.38;6283594;20;2864974;-43
2023/12/04 10:39:53;;;;;;;;;36.00;28.00;;;;;1.27;74.51;100447.38;6314605;20;2853402;-42
2023/12/04 10:42:32;;;;;;;;;30.00;28.00;;;;;0.91;77.19;100453.06;6283625;20;2500279;-43
2023/12/04 10:45:00;;;;;;;;;29.50;23.00;;;;;0.82;79.14;100452.25;6280370;20;2500306;-45
2023/12/04 10:47:31;;;;;;;;;32.50;32.50;;;;;1.23;78.68;100452.72;6283840;20;2500272;-42
2023/12/04 10:50:01;;;;;;;;;39.00;31.50;;;;;1.32;76.97;100452.63;6284677;20;2863780;-43
2023/12/04 10:52:32;;;;;;;;;33.67;26.67;;;;;1.44;76.45;100451.59;6278306;20;3598214;-41
2023/12/04 10:55:01;;;;;;;;;27.67;22.67;;;;;1.42;75.71;100442.78;6280349;20;3566065;-47
2023/12/04 10:57:39;;;;;;;;;32.00;28.00;;;;;1.80;74.87;100444.97;6277984;20;2500277;-52
2023/12/04 11:00:11;;;;;;;;;28.50;27.00;;;;;1.68;73.28;100442.47;6277701;20;2500582;-47